sensor_id;sensor_type;location;lat;lon;timestamp;temperature;humidity
44843;DHT22;31884;52.538;13.820;2023-05-20T00:00:06;9.30;99.90
44843;DHT22;31884;52.538;13.820;2023-05-20T00:02:32;9.30;99.90
44843;DHT22;31884;52.538;13.820;2023-05-20T00:04:58;9.30;99.90
44843;DHT22;31884;52.538;13.820;2023-05-20T00:07:23;9.30;99.90
44843;DHT22;31884;52.538;13.820;2023-05-20T00:09:49;9.20;99.90
44843;DHT22;31884;52.538;13.820;2023-05-20T00:12:14;9.30;99.90
44843;DHT22;31884;52.538;13.820;2023-05-20T00:14:40;9.30;99.90
44843;DHT22;31884;52.538;13.820;2023-05-20T00:17:05;9.20;99.90
44843;DHT22;31884;52.538;13.820;2023-05-20T00:19:31;9.20;99.90
44843;DHT22;31884;52.538;13.820;2023-05-20T00:21:56;9.20;99.90
44843;DHT22;31884;52.538;13.820;2023-05-20T00:24:23;9.20;99.90
44843;DHT22;31884;52.538;13.820;2023-05-20T00:26:48;9.20;99.90
44843;DHT22;31884;52.538;13.820;2023-05-20T00:29:14;9.20;99.90
44843;DHT22;31884;52.538;13.820;2023-05-20T00:31:39;9.10;99.90
44843;DHT22;31884;52.538;13.820;2023-05-20T00:34:06;9.20;99.90
44843;DHT22;31884;52.538;13.820;2023-05-20T00:36:32;9.10;99.90
44843;DHT22;31884;52.538;13.820;2023-05-20T00:38:57;9.10;99.90
44843;DHT22;31884;52.538;13.820;2023-05-20T00:41:23;9.10;99.90
44843;DHT22;31884;52.538;13.820;2023-05-20T00:43:52;9.10;99.90
44843;DHT22;31884;52.538;13.820;2023-05-20T00:46:18;9.10;99.90
44843;DHT22;31884;52.538;13.820;2023-05-20T00:48:44;9.10;99.90
44843;DHT22;31884;52.538;13.820;2023-05-20T00:51:13;9.10;99.90
44843;DHT22;31884;52.538;13.820;2023-05-20T00:53:39;9.10;99.90
44843;DHT22;31884;52.538;13.820;2023-05-20T00:56:06;9.10;99.90
44843;DHT22;31884;52.538;13.820;2023-05-20T00:58:33;9.00;99.90
44843;DHT22;31884;52.538;13.820;2023-05-20T01:01:01;9.10;99.90
44843;DHT22;31884;52.538;13.820;2023-05-20T01:03:27;9.00;99.90
44843;DHT22;31884;52.538;13.820;2023-05-20T01:05:53;9.00;99.90
44843;DHT22;31884;52.538;13.820;2023-05-20T01:08:19;9.10;99.90
44843;DHT22;31884;52.538;13.820;2023-05-20T01:10:48;9.00;99.90
44843;DHT22;31884;52.538;13.820;2023-05-20T01:13:19;9.00;99.90
44843;DHT22;31884;52.538;13.820;2023-05-20T01:15:47;9.00;99.90
44843;DHT22;31884;52.538;13.820;2023-05-20T01:18:14;9.00;99.90
44843;DHT22;31884;52.538;13.820;2023-05-20T01:20:43;9.10;99.90
44843;DHT22;31884;52.538;13.820;2023-05-20T01:23:10;9.00;99.90
44843;DHT22;31884;52.538;13.820;2023-05-20T01:25:36;9.00;99.90
44843;DHT22;31884;52.538;13.820;2023-05-20T01:28:01;9.00;99.90
44843;DHT22;31884;52.538;13.820;2023-05-20T01:30:38;9.00;99.90
44843;DHT22;31884;52.538;13.820;2023-05-20T01:33:09;9.00;99.90
44843;DHT22;31884;52.538;13.820;2023-05-20T01:35:37;9.00;99.90
44843;DHT22;31884;52.538;13.820;2023-05-20T01:38:04;9.00;99.90
44843;DHT22;31884;52.538;13.820;2023-05-20T01:40:30;9.10;99.90
44843;DHT22;31884;52.538;13.820;2023-05-20T01:42:57;9.10;99.90
44843;DHT22;31884;52.538;13.820;2023-05-20T01:45:24;9.10;99.90
44843;DHT22;31884;52.538;13.820;2023-05-20T01:47:50;9.20;99.90
44843;DHT22;31884;52.538;13.820;2023-05-20T01:50:15;9.30;99.90
44843;DHT22;31884;52.538;13.820;2023-05-20T01:52:41;9.30;99.90
44843;DHT22;31884;52.538;13.820;2023-05-20T01:55:07;9.30;99.90
44843;DHT22;31884;52.538;13.820;2023-05-20T01:57:32;9.40;99.90
44843;DHT22;31884;52.538;13.820;2023-05-20T01:59:58;9.40;99.90
44843;DHT22;31884;52.538;13.820;2023-05-20T02:02:23;9.50;99.90
44843;DHT22;31884;52.538;13.820;2023-05-20T02:04:49;9.50;99.90
44843;DHT22;31884;52.538;13.820;2023-05-20T02:07:16;9.50;99.90
44843;DHT22;31884;52.538;13.820;2023-05-20T02:09:43;9.60;99.90
44843;DHT22;31884;52.538;13.820;2023-05-20T02:12:09;9.60;99.90
44843;DHT22;31884;52.538;13.820;2023-05-20T02:14:40;9.60;99.90
44843;DHT22;31884;52.538;13.820;2023-05-20T02:17:06;9.60;99.90
44843;DHT22;31884;52.538;13.820;2023-05-20T02:19:31;9.70;99.90
44843;DHT22;31884;52.538;13.820;2023-05-20T02:21:57;9.70;99.90
44843;DHT22;31884;52.538;13.820;2023-05-20T02:24:22;9.80;99.90
44843;DHT22;31884;52.538;13.820;2023-05-20T02:26:48;9.70;99.90
44843;DHT22;31884;52.538;13.820;2023-05-20T02:29:15;9.80;99.90
44843;DHT22;31884;52.538;13.820;2023-05-20T02:31:41;9.80;99.90
44843;DHT22;31884;52.538;13.820;2023-05-20T02:34:06;9.80;99.90
44843;DHT22;31884;52.538;13.820;2023-05-20T02:36:32;9.90;99.90
44843;DHT22;31884;52.538;13.820;2023-05-20T02:38:57;9.90;99.90
44843;DHT22;31884;52.538;13.820;2023-05-20T02:41:25;9.90;99.90
44843;DHT22;31884;52.538;13.820;2023-05-20T02:43:50;9.90;99.90
44843;DHT22;31884;52.538;13.820;2023-05-20T02:46:16;9.90;99.90
44843;DHT22;31884;52.538;13.820;2023-05-20T02:48:44;9.90;99.90
44843;DHT22;31884;52.538;13.820;2023-05-20T02:51:10;9.90;99.90
44843;DHT22;31884;52.538;13.820;2023-05-20T02:53:35;9.90;99.90
44843;DHT22;31884;52.538;13.820;2023-05-20T02:56:02;9.90;99.90
44843;DHT22;31884;52.538;13.820;2023-05-20T02:58:28;9.90;99.90
44843;DHT22;31884;52.538;13.820;2023-05-20T03:00:54;9.90;99.90
44843;DHT22;31884;52.538;13.820;2023-05-20T03:03:22;10.00;99.90
44843;DHT22;31884;52.538;13.820;2023-05-20T03:05:48;10.00;99.90
44843;DHT22;31884;52.538;13.820;2023-05-20T03:08:14;9.90;99.90
44843;DHT22;31884;52.538;13.820;2023-05-20T03:10:40;10.00;99.90
44843;DHT22;31884;52.538;13.820;2023-05-20T03:13:06;10.00;99.90
44843;DHT22;31884;52.538;13.820;2023-05-20T03:15:37;10.00;99.90
44843;DHT22;31884;52.538;13.820;2023-05-20T03:18:03;10.00;99.90
44843;DHT22;31884;52.538;13.820;2023-05-20T03:20:29;10.00;99.90
44843;DHT22;31884;52.538;13.820;2023-05-20T03:22:55;10.10;99.90
44843;DHT22;31884;52.538;13.820;2023-05-20T03:25:21;10.10;99.90
44843;DHT22;31884;52.538;13.820;2023-05-20T03:27:46;10.10;99.90
44843;DHT22;31884;52.538;13.820;2023-05-20T03:30:12;10.10;99.90
44843;DHT22;31884;52.538;13.820;2023-05-20T03:32:38;10.10;99.90
44843;DHT22;31884;52.538;13.820;2023-05-20T03:35:04;10.20;99.90
44843;DHT22;31884;52.538;13.820;2023-05-20T03:37:30;10.20;99.90
44843;DHT22;31884;52.538;13.820;2023-05-20T03:39:56;10.20;99.90
44843;DHT22;31884;52.538;13.820;2023-05-20T03:42:21;10.20;99.90
44843;DHT22;31884;52.538;13.820;2023-05-20T03:44:46;10.20;99.90
44843;DHT22;31884;52.538;13.820;2023-05-20T03:47:12;10.30;99.90
44843;DHT22;31884;52.538;13.820;2023-05-20T03:49:37;10.30;99.90
44843;DHT22;31884;52.538;13.820;2023-05-20T03:52:05;10.30;99.90
44843;DHT22;31884;52.538;13.820;2023-05-20T03:54:31;10.30;99.90
44843;DHT22;31884;52.538;13.820;2023-05-20T03:56:56;10.40;99.90
44843;DHT22;31884;52.538;13.820;2023-05-20T03:59:22;10.40;99.90
44843;DHT22;31884;52.538;13.820;2023-05-20T04:01:48;10.40;99.90
44843;DHT22;31884;52.538;13.820;2023-05-20T04:04:13;10.30;99.90
44843;DHT22;31884;52.538;13.820;2023-05-20T04:06:39;10.40;99.90
44843;DHT22;31884;52.538;13.820;2023-05-20T04:09:05;10.40;99.90
44843;DHT22;31884;52.538;13.820;2023-05-20T04:11:30;10.40;99.90
44843;DHT22;31884;52.538;13.820;2023-05-20T04:13:56;10.50;99.90
44843;DHT22;31884;52.538;13.820;2023-05-20T04:16:23;10.50;99.90
44843;DHT22;31884;52.538;13.820;2023-05-20T04:18:48;10.60;99.90
44843;DHT22;31884;52.538;13.820;2023-05-20T04:21:14;10.50;99.90
44843;DHT22;31884;52.538;13.820;2023-05-20T04:23:40;10.60;99.90
44843;DHT22;31884;52.538;13.820;2023-05-20T04:26:06;10.60;99.90
44843;DHT22;31884;52.538;13.820;2023-05-20T04:28:31;10.60;99.90
44843;DHT22;31884;52.538;13.820;2023-05-20T04:31:00;10.60;99.90
44843;DHT22;31884;52.538;13.820;2023-05-20T04:33:29;10.60;99.90
44843;DHT22;31884;52.538;13.820;2023-05-20T04:35:55;10.60;99.90
44843;DHT22;31884;52.538;13.820;2023-05-20T04:38:23;10.70;99.90
44843;DHT22;31884;52.538;13.820;2023-05-20T04:40:54;10.60;99.90
44843;DHT22;31884;52.538;13.820;2023-05-20T04:43:22;10.60;99.90
44843;DHT22;31884;52.538;13.820;2023-05-20T04:45:48;10.70;99.90
44843;DHT22;31884;52.538;13.820;2023-05-20T04:48:14;10.70;99.90
44843;DHT22;31884;52.538;13.820;2023-05-20T04:50:39;10.70;99.90
44843;DHT22;31884;52.538;13.820;2023-05-20T04:53:06;10.70;99.90
44843;DHT22;31884;52.538;13.820;2023-05-20T04:55:32;10.70;99.90
44843;DHT22;31884;52.538;13.820;2023-05-20T04:57:57;10.70;99.90
44843;DHT22;31884;52.538;13.820;2023-05-20T05:00:23;10.70;99.90
44843;DHT22;31884;52.538;13.820;2023-05-20T05:02:49;10.70;99.90
44843;DHT22;31884;52.538;13.820;2023-05-20T05:05:14;10.70;99.90
44843;DHT22;31884;52.538;13.820;2023-05-20T05:07:40;10.80;99.90
44843;DHT22;31884;52.538;13.820;2023-05-20T05:10:06;10.80;99.90
44843;DHT22;31884;52.538;13.820;2023-05-20T05:12:32;10.80;99.90
44843;DHT22;31884;52.538;13.820;2023-05-20T05:14:57;10.90;99.90
44843;DHT22;31884;52.538;13.820;2023-05-20T05:17:23;10.90;99.90
44843;DHT22;31884;52.538;13.820;2023-05-20T05:19:49;10.90;99.90
44843;DHT22;31884;52.538;13.820;2023-05-20T05:22:14;11.00;99.90
44843;DHT22;31884;52.538;13.820;2023-05-20T05:24:40;11.00;99.90
44843;DHT22;31884;52.538;13.820;2023-05-20T05:27:06;11.00;99.90
44843;DHT22;31884;52.538;13.820;2023-05-20T05:29:31;11.00;99.90
44843;DHT22;31884;52.538;13.820;2023-05-20T05:31:57;11.10;99.90
44843;DHT22;31884;52.538;13.820;2023-05-20T05:34:22;11.00;99.90
44843;DHT22;31884;52.538;13.820;2023-05-20T05:36:47;11.00;99.90
44843;DHT22;31884;52.538;13.820;2023-05-20T05:39:13;11.10;99.90
44843;DHT22;31884;52.538;13.820;2023-05-20T05:41:38;11.10;99.90
44843;DHT22;31884;52.538;13.820;2023-05-20T05:44:04;11.10;99.90
44843;DHT22;31884;52.538;13.820;2023-05-20T05:46:30;11.10;99.90
44843;DHT22;31884;52.538;13.820;2023-05-20T05:48:55;11.10;99.90
44843;DHT22;31884;52.538;13.820;2023-05-20T05:51:23;11.20;99.90
44843;DHT22;31884;52.538;13.820;2023-05-20T05:53:49;11.20;99.90
44843;DHT22;31884;52.538;13.820;2023-05-20T05:56:15;11.20;99.90
44843;DHT22;31884;52.538;13.820;2023-05-20T05:58:40;11.30;99.90
44843;DHT22;31884;52.538;13.820;2023-05-20T06:01:06;11.30;99.90
44843;DHT22;31884;52.538;13.820;2023-05-20T06:03:31;11.40;99.90
44843;DHT22;31884;52.538;13.820;2023-05-20T06:05:57;11.40;99.90
44843;DHT22;31884;52.538;13.820;2023-05-20T06:08:22;11.50;99.90
44843;DHT22;31884;52.538;13.820;2023-05-20T06:10:49;11.50;99.90
44843;DHT22;31884;52.538;13.820;2023-05-20T06:13:15;11.60;99.90
44843;DHT22;31884;52.538;13.820;2023-05-20T06:15:40;11.60;99.90
44843;DHT22;31884;52.538;13.820;2023-05-20T06:18:06;11.60;99.90
44843;DHT22;31884;52.538;13.820;2023-05-20T06:20:31;11.60;99.90
44843;DHT22;31884;52.538;13.820;2023-05-20T06:22:57;11.70;99.90
44843;DHT22;31884;52.538;13.820;2023-05-20T06:25:22;11.70;99.90
44843;DHT22;31884;52.538;13.820;2023-05-20T06:27:48;11.70;99.90
44843;DHT22;31884;52.538;13.820;2023-05-20T06:30:14;11.70;99.90
44843;DHT22;31884;52.538;13.820;2023-05-20T06:32:40;11.80;99.90
44843;DHT22;31884;52.538;13.820;2023-05-20T06:35:05;11.90;99.90
44843;DHT22;31884;52.538;13.820;2023-05-20T06:37:31;11.90;99.90
44843;DHT22;31884;52.538;13.820;2023-05-20T06:39:57;12.00;99.90
44843;DHT22;31884;52.538;13.820;2023-05-20T06:42:22;12.20;99.90
44843;DHT22;31884;52.538;13.820;2023-05-20T06:44:48;12.30;99.90
44843;DHT22;31884;52.538;13.820;2023-05-20T06:47:15;12.30;99.90
44843;DHT22;31884;52.538;13.820;2023-05-20T06:49:42;12.20;99.90
44843;DHT22;31884;52.538;13.820;2023-05-20T06:52:07;12.20;99.90
44843;DHT22;31884;52.538;13.820;2023-05-20T06:54:33;12.10;99.90
44843;DHT22;31884;52.538;13.820;2023-05-20T06:57:05;12.10;99.90
44843;DHT22;31884;52.538;13.820;2023-05-20T06:59:31;12.20;99.90
44843;DHT22;31884;52.538;13.820;2023-05-20T07:01:56;12.40;99.90
44843;DHT22;31884;52.538;13.820;2023-05-20T07:04:22;12.50;99.90
44843;DHT22;31884;52.538;13.820;2023-05-20T07:06:47;12.60;99.90
44843;DHT22;31884;52.538;13.820;2023-05-20T07:09:13;12.70;99.90
44843;DHT22;31884;52.538;13.820;2023-05-20T07:11:38;12.70;99.90
44843;DHT22;31884;52.538;13.820;2023-05-20T07:14:04;12.80;99.90
44843;DHT22;31884;52.538;13.820;2023-05-20T07:16:29;12.80;99.90
44843;DHT22;31884;52.538;13.820;2023-05-20T07:18:56;12.70;99.90
44843;DHT22;31884;52.538;13.820;2023-05-20T07:21:22;12.80;99.90
44843;DHT22;31884;52.538;13.820;2023-05-20T07:23:47;12.80;99.90
44843;DHT22;31884;52.538;13.820;2023-05-20T07:26:13;12.90;99.90
44843;DHT22;31884;52.538;13.820;2023-05-20T07:28:39;13.10;99.90
44843;DHT22;31884;52.538;13.820;2023-05-20T07:31:05;13.20;99.90
44843;DHT22;31884;52.538;13.820;2023-05-20T07:33:32;13.40;99.90
44843;DHT22;31884;52.538;13.820;2023-05-20T07:35:58;13.50;99.90
44843;DHT22;31884;52.538;13.820;2023-05-20T07:38:23;13.60;99.20
44843;DHT22;31884;52.538;13.820;2023-05-20T07:40:49;13.70;98.70
44843;DHT22;31884;52.538;13.820;2023-05-20T07:43:16;13.70;96.80
44843;DHT22;31884;52.538;13.820;2023-05-20T07:45:42;13.80;97.60
44843;DHT22;31884;52.538;13.820;2023-05-20T07:48:07;13.90;96.50
44843;DHT22;31884;52.538;13.820;2023-05-20T07:50:33;14.00;95.90
44843;DHT22;31884;52.538;13.820;2023-05-20T07:52:59;14.00;95.70
44843;DHT22;31884;52.538;13.820;2023-05-20T07:55:25;14.10;95.30
44843;DHT22;31884;52.538;13.820;2023-05-20T07:57:51;14.30;94.00
44843;DHT22;31884;52.538;13.820;2023-05-20T08:00:17;14.40;92.70
44843;DHT22;31884;52.538;13.820;2023-05-20T08:02:43;14.50;92.70
44843;DHT22;31884;52.538;13.820;2023-05-20T08:05:08;14.80;91.50
44843;DHT22;31884;52.538;13.820;2023-05-20T08:07:34;15.10;90.80
44843;DHT22;31884;52.538;13.820;2023-05-20T08:09:59;15.00;88.10
44843;DHT22;31884;52.538;13.820;2023-05-20T08:12:26;15.20;88.30
44843;DHT22;31884;52.538;13.820;2023-05-20T08:14:53;15.40;85.40
44843;DHT22;31884;52.538;13.820;2023-05-20T08:17:18;15.50;82.90
44843;DHT22;31884;52.538;13.820;2023-05-20T08:19:44;15.60;83.30
44843;DHT22;31884;52.538;13.820;2023-05-20T08:22:09;15.60;82.50
44843;DHT22;31884;52.538;13.820;2023-05-20T08:24:36;15.60;79.30
44843;DHT22;31884;52.538;13.820;2023-05-20T08:27:02;15.60;79.60
44843;DHT22;31884;52.538;13.820;2023-05-20T08:29:29;15.50;78.80
44843;DHT22;31884;52.538;13.820;2023-05-20T08:31:56;15.40;80.20
44843;DHT22;31884;52.538;13.820;2023-05-20T08:34:22;15.30;81.70
44843;DHT22;31884;52.538;13.820;2023-05-20T08:36:47;15.30;81.80
44843;DHT22;31884;52.538;13.820;2023-05-20T08:39:13;15.30;82.70
44843;DHT22;31884;52.538;13.820;2023-05-20T08:41:39;15.40;82.30
44843;DHT22;31884;52.538;13.820;2023-05-20T08:44:06;15.30;82.10
44843;DHT22;31884;52.538;13.820;2023-05-20T08:46:35;15.30;81.90
44843;DHT22;31884;52.538;13.820;2023-05-20T08:49:02;15.50;81.80
44843;DHT22;31884;52.538;13.820;2023-05-20T08:51:28;15.60;81.00
44843;DHT22;31884;52.538;13.820;2023-05-20T08:53:58;15.80;80.00
44843;DHT22;31884;52.538;13.820;2023-05-20T08:56:27;15.70;79.40
44843;DHT22;31884;52.538;13.820;2023-05-20T08:58:52;15.80;79.40
44843;DHT22;31884;52.538;13.820;2023-05-20T09:01:18;16.00;78.40
44843;DHT22;31884;52.538;13.820;2023-05-20T09:03:48;16.20;77.80
44843;DHT22;31884;52.538;13.820;2023-05-20T09:06:16;16.40;75.90
44843;DHT22;31884;52.538;13.820;2023-05-20T09:08:49;16.40;73.80
44843;DHT22;31884;52.538;13.820;2023-05-20T09:11:19;16.10;74.50
44843;DHT22;31884;52.538;13.820;2023-05-20T09:13:48;15.90;77.30
44843;DHT22;31884;52.538;13.820;2023-05-20T09:16:15;15.90;78.20
44843;DHT22;31884;52.538;13.820;2023-05-20T09:18:41;16.00;78.20
44843;DHT22;31884;52.538;13.820;2023-05-20T09:21:09;16.00;78.40
44843;DHT22;31884;52.538;13.820;2023-05-20T09:23:37;15.80;77.60
44843;DHT22;31884;52.538;13.820;2023-05-20T09:26:03;15.70;77.10
44843;DHT22;31884;52.538;13.820;2023-05-20T09:28:28;15.50;79.10
44843;DHT22;31884;52.538;13.820;2023-05-20T09:31:00;15.50;80.30
44843;DHT22;31884;52.538;13.820;2023-05-20T09:33:28;15.70;80.50
44843;DHT22;31884;52.538;13.820;2023-05-20T09:36:02;15.70;80.20
44843;DHT22;31884;52.538;13.820;2023-05-20T09:38:30;15.70;79.50
44843;DHT22;31884;52.538;13.820;2023-05-20T09:41:02;15.90;79.20
44843;DHT22;31884;52.538;13.820;2023-05-20T09:43:33;16.00;77.50
44843;DHT22;31884;52.538;13.820;2023-05-20T09:45:58;16.10;76.60
44843;DHT22;31884;52.538;13.820;2023-05-20T09:48:26;16.00;76.70
44843;DHT22;31884;52.538;13.820;2023-05-20T09:50:53;15.80;77.40
44843;DHT22;31884;52.538;13.820;2023-05-20T09:53:19;15.80;76.20
44843;DHT22;31884;52.538;13.820;2023-05-20T09:55:48;15.80;77.70
44843;DHT22;31884;52.538;13.820;2023-05-20T09:58:18;15.60;77.80
44843;DHT22;31884;52.538;13.820;2023-05-20T10:00:44;15.70;78.40
44843;DHT22;31884;52.538;13.820;2023-05-20T10:03:11;16.20;76.00
44843;DHT22;31884;52.538;13.820;2023-05-20T10:05:43;16.60;72.50
44843;DHT22;31884;52.538;13.820;2023-05-20T10:11:32;16.80;69.00
44843;DHT22;31884;52.538;13.820;2023-05-20T10:14:38;16.80;68.80
44843;DHT22;31884;52.538;13.820;2023-05-20T10:19:57;16.80;67.80
44843;DHT22;31884;52.538;13.820;2023-05-20T10:22:28;16.60;69.20
44843;DHT22;31884;52.538;13.820;2023-05-20T10:25:04;16.50;70.40
44843;DHT22;31884;52.538;13.820;2023-05-20T10:27:46;16.50;72.20
44843;DHT22;31884;52.538;13.820;2023-05-20T10:30:17;16.80;70.10
44843;DHT22;31884;52.538;13.820;2023-05-20T10:33:02;16.90;69.60
44843;DHT22;31884;52.538;13.820;2023-05-20T10:35:29;17.10;68.50
44843;DHT22;31884;52.538;13.820;2023-05-20T10:38:09;17.10;67.50
44843;DHT22;31884;52.538;13.820;2023-05-20T10:40:37;17.10;68.30
44843;DHT22;31884;52.538;13.820;2023-05-20T10:43:13;17.00;67.80
44843;DHT22;31884;52.538;13.820;2023-05-20T10:45:53;16.90;68.30
44843;DHT22;31884;52.538;13.820;2023-05-20T10:48:24;17.00;68.30
44843;DHT22;31884;52.538;13.820;2023-05-20T10:50:52;17.10;68.80
44843;DHT22;31884;52.538;13.820;2023-05-20T10:53:21;17.10;67.30
44843;DHT22;31884;52.538;13.820;2023-05-20T10:55:50;16.70;69.20
44843;DHT22;31884;52.538;13.820;2023-05-20T10:58:18;16.50;71.00
44843;DHT22;31884;52.538;13.820;2023-05-20T11:00:44;16.90;70.70
44843;DHT22;31884;52.538;13.820;2023-05-20T11:03:13;17.10;68.50
44843;DHT22;31884;52.538;13.820;2023-05-20T11:05:40;17.30;66.90
44843;DHT22;31884;52.538;13.820;2023-05-20T11:08:07;17.60;66.10
44843;DHT22;31884;52.538;13.820;2023-05-20T11:10:36;17.70;65.50
44843;DHT22;31884;52.538;13.820;2023-05-20T11:13:02;17.70;65.10
44843;DHT22;31884;52.538;13.820;2023-05-20T11:15:31;17.50;65.10
44843;DHT22;31884;52.538;13.820;2023-05-20T11:18:01;17.60;64.80
44843;DHT22;31884;52.538;13.820;2023-05-20T11:20:29;17.30;65.70
44843;DHT22;31884;52.538;13.820;2023-05-20T11:23:00;17.00;67.40
44843;DHT22;31884;52.538;13.820;2023-05-20T11:25:27;16.90;68.20
44843;DHT22;31884;52.538;13.820;2023-05-20T11:27:53;16.80;70.10
44843;DHT22;31884;52.538;13.820;2023-05-20T11:30:19;16.80;70.60
44843;DHT22;31884;52.538;13.820;2023-05-20T11:33:00;16.80;70.50
44843;DHT22;31884;52.538;13.820;2023-05-20T11:35:27;17.20;69.70
44843;DHT22;31884;52.538;13.820;2023-05-20T11:38:03;17.40;66.40
44843;DHT22;31884;52.538;13.820;2023-05-20T11:40:31;17.60;65.00
44843;DHT22;31884;52.538;13.820;2023-05-20T11:43:00;17.80;64.50
44843;DHT22;31884;52.538;13.820;2023-05-20T11:45:26;17.90;63.10
44843;DHT22;31884;52.538;13.820;2023-05-20T11:48:03;18.00;62.80
44843;DHT22;31884;52.538;13.820;2023-05-20T11:53:05;17.80;64.00
44843;DHT22;31884;52.538;13.820;2023-05-20T11:55:31;17.70;64.60
44843;DHT22;31884;52.538;13.820;2023-05-20T11:58:00;17.50;65.40
44843;DHT22;31884;52.538;13.820;2023-05-20T12:00:26;17.40;65.60
44843;DHT22;31884;52.538;13.820;2023-05-20T12:02:54;17.60;65.40
44843;DHT22;31884;52.538;13.820;2023-05-20T12:05:19;17.60;64.90
44843;DHT22;31884;52.538;13.820;2023-05-20T12:07:45;17.40;65.90
44843;DHT22;31884;52.538;13.820;2023-05-20T12:10:11;17.40;66.70
44843;DHT22;31884;52.538;13.820;2023-05-20T12:12:38;17.60;65.70
44843;DHT22;31884;52.538;13.820;2023-05-20T12:15:04;17.70;65.80
44843;DHT22;31884;52.538;13.820;2023-05-20T12:17:34;17.90;64.60
44843;DHT22;31884;52.538;13.820;2023-05-20T12:20:09;17.80;65.00
44843;DHT22;31884;52.538;13.820;2023-05-20T12:22:35;17.70;64.60
44843;DHT22;31884;52.538;13.820;2023-05-20T12:25:01;17.60;65.00
44843;DHT22;31884;52.538;13.820;2023-05-20T12:27:26;17.70;64.60
44843;DHT22;31884;52.538;13.820;2023-05-20T12:29:52;17.90;64.20
44843;DHT22;31884;52.538;13.820;2023-05-20T12:32:19;17.70;64.20
44843;DHT22;31884;52.538;13.820;2023-05-20T12:34:45;17.80;64.30
44843;DHT22;31884;52.538;13.820;2023-05-20T12:37:11;17.70;64.40
44843;DHT22;31884;52.538;13.820;2023-05-20T12:39:36;17.50;65.40
44843;DHT22;31884;52.538;13.820;2023-05-20T12:42:02;17.40;66.60
44843;DHT22;31884;52.538;13.820;2023-05-20T12:44:29;17.40;66.60
44843;DHT22;31884;52.538;13.820;2023-05-20T12:46:55;17.50;67.20
44843;DHT22;31884;52.538;13.820;2023-05-20T12:49:21;17.70;68.20
44843;DHT22;31884;52.538;13.820;2023-05-20T12:51:47;18.10;66.50
44843;DHT22;31884;52.538;13.820;2023-05-20T12:54:13;18.10;64.10
44843;DHT22;31884;52.538;13.820;2023-05-20T12:56:39;18.00;64.00
44843;DHT22;31884;52.538;13.820;2023-05-20T12:59:05;18.10;64.10
44843;DHT22;31884;52.538;13.820;2023-05-20T13:01:31;18.00;63.90
44843;DHT22;31884;52.538;13.820;2023-05-20T13:03:58;18.00;63.10
44843;DHT22;31884;52.538;13.820;2023-05-20T13:06:24;17.90;63.80
44843;DHT22;31884;52.538;13.820;2023-05-20T13:08:50;17.70;64.80
44843;DHT22;31884;52.538;13.820;2023-05-20T13:11:16;17.70;64.90
44843;DHT22;31884;52.538;13.820;2023-05-20T13:13:41;17.70;65.70
44843;DHT22;31884;52.538;13.820;2023-05-20T13:16:07;17.80;65.90
44843;DHT22;31884;52.538;13.820;2023-05-20T13:18:34;17.80;66.40
44843;DHT22;31884;52.538;13.820;2023-05-20T13:21:00;17.90;65.60
44843;DHT22;31884;52.538;13.820;2023-05-20T13:23:26;17.90;64.00
44843;DHT22;31884;52.538;13.820;2023-05-20T13:25:51;17.80;64.70
44843;DHT22;31884;52.538;13.820;2023-05-20T13:28:19;17.80;66.50
44843;DHT22;31884;52.538;13.820;2023-05-20T13:30:45;17.80;66.60
44843;DHT22;31884;52.538;13.820;2023-05-20T13:33:10;17.90;66.30
44843;DHT22;31884;52.538;13.820;2023-05-20T13:35:36;18.00;66.00
44843;DHT22;31884;52.538;13.820;2023-05-20T13:38:02;18.10;64.90
44843;DHT22;31884;52.538;13.820;2023-05-20T13:40:28;18.00;64.10
44843;DHT22;31884;52.538;13.820;2023-05-20T13:42:55;18.00;64.80
44843;DHT22;31884;52.538;13.820;2023-05-20T13:45:20;17.90;64.30
44843;DHT22;31884;52.538;13.820;2023-05-20T13:47:47;17.80;66.50
44843;DHT22;31884;52.538;13.820;2023-05-20T13:50:13;17.90;66.90
44843;DHT22;31884;52.538;13.820;2023-05-20T13:52:39;18.00;65.00
44843;DHT22;31884;52.538;13.820;2023-05-20T13:55:05;18.00;64.50
44843;DHT22;31884;52.538;13.820;2023-05-20T13:57:31;18.10;64.80
44843;DHT22;31884;52.538;13.820;2023-05-20T13:59:58;18.10;65.00
44843;DHT22;31884;52.538;13.820;2023-05-20T14:02:23;18.30;65.70
44843;DHT22;31884;52.538;13.820;2023-05-20T14:04:49;18.40;65.00
44843;DHT22;31884;52.538;13.820;2023-05-20T14:07:14;18.40;63.80
44843;DHT22;31884;52.538;13.820;2023-05-20T14:09:40;18.40;64.40
44843;DHT22;31884;52.538;13.820;2023-05-20T14:12:06;18.40;64.20
44843;DHT22;31884;52.538;13.820;2023-05-20T14:14:31;18.30;65.00
44843;DHT22;31884;52.538;13.820;2023-05-20T14:16:58;18.30;65.50
44843;DHT22;31884;52.538;13.820;2023-05-20T14:19:24;18.30;64.30
44843;DHT22;31884;52.538;13.820;2023-05-20T14:21:50;18.30;65.20
44843;DHT22;31884;52.538;13.820;2023-05-20T14:24:16;18.40;64.70
44843;DHT22;31884;52.538;13.820;2023-05-20T14:26:41;18.50;64.60
44843;DHT22;31884;52.538;13.820;2023-05-20T14:29:07;18.50;63.20
44843;DHT22;31884;52.538;13.820;2023-05-20T14:31:32;18.60;62.70
44843;DHT22;31884;52.538;13.820;2023-05-20T14:33:59;18.60;61.60
44843;DHT22;31884;52.538;13.820;2023-05-20T14:36:25;18.60;61.50
44843;DHT22;31884;52.538;13.820;2023-05-20T14:38:50;18.60;61.10
44843;DHT22;31884;52.538;13.820;2023-05-20T14:41:16;18.60;60.50
44843;DHT22;31884;52.538;13.820;2023-05-20T14:43:42;18.60;60.20
44843;DHT22;31884;52.538;13.820;2023-05-20T14:46:09;18.60;60.50
44843;DHT22;31884;52.538;13.820;2023-05-20T14:48:35;18.80;61.70
44843;DHT22;31884;52.538;13.820;2023-05-20T14:51:00;18.90;61.40
44843;DHT22;31884;52.538;13.820;2023-05-20T14:53:26;19.00;61.30
44843;DHT22;31884;52.538;13.820;2023-05-20T14:55:52;19.10;60.40
44843;DHT22;31884;52.538;13.820;2023-05-20T14:58:19;19.10;59.10
44843;DHT22;31884;52.538;13.820;2023-05-20T15:00:44;19.00;59.60
44843;DHT22;31884;52.538;13.820;2023-05-20T15:03:10;19.00;60.00
44843;DHT22;31884;52.538;13.820;2023-05-20T15:05:35;19.00;60.40
44843;DHT22;31884;52.538;13.820;2023-05-20T15:08:01;19.00;60.20
44843;DHT22;31884;52.538;13.820;2023-05-20T15:10:28;19.20;60.20
44843;DHT22;31884;52.538;13.820;2023-05-20T15:12:54;19.20;60.00
44843;DHT22;31884;52.538;13.820;2023-05-20T15:15:20;19.30;60.30
44843;DHT22;31884;52.538;13.820;2023-05-20T15:17:46;19.30;59.20
44843;DHT22;31884;52.538;13.820;2023-05-20T15:20:11;19.30;59.10
44843;DHT22;31884;52.538;13.820;2023-05-20T15:22:37;19.30;59.60
44843;DHT22;31884;52.538;13.820;2023-05-20T15:25:03;19.30;59.30